Time;durP1;ratioP1;P1;durP2;ratioP2;P2;SDS_P1;SDS_P2;PMS_P1;PMS_P2;Temp;Humidity;BMP_temperature;BMP_pressure;BME280_temperature;BME280_humidity;BME280_pressure;Samples;Min_cycle;Max_cycle;Signal;HPM_P1;HPM_P2
2021/10/16 00:00:00;;;;;;;18.10;7.03;;;;;;;12.89;74.72;101181.67;1680902;84;21092;-63
2021/10/16 00:02:27;;;;;;;16.17;7.10;;;;;;;12.87;74.48;101184.89;1671312;84;21184;-62
2021/10/16 00:04:53;;;;;;;18.15;8.30;;;;;;;12.82;74.60;101181.50;1675177;84;21522;-61
2021/10/16 00:07:21;;;;;;;21.17;7.17;;;;;;;12.83;73.98;101183.26;1685227;84;21137;-63
2021/10/16 00:09:48;;;;;;;22.17;7.92;;;;;;;12.83;74.21;101168.94;1671806;84;21080;-57
2021/10/16 00:12:15;;;;;;;30.37;7.10;;;;;;;12.80;74.38;101161.85;1674336;84;21105;-62
2021/10/16 00:14:42;;;;;;;16.77;6.97;;;;;;;12.80;74.46;101149.75;1671178;84;21190;-63
2021/10/16 00:17:09;;;;;;;22.42;7.85;;;;;;;12.81;74.00;101151.95;1672861;84;21013;-62
2021/10/16 00:19:38;;;;;;;20.43;6.80;;;;;;;12.77;73.50;101157.05;1667575;84;21017;-62
2021/10/16 00:22:05;;;;;;;25.35;7.75;;;;;;;12.76;73.95;101153.50;1673365;84;21053;-63
2021/10/16 00:24:34;;;;;;;26.02;6.90;;;;;;;12.77;74.55;101157.94;1672085;84;21108;-62
2021/10/16 00:27:01;;;;;;;13.38;6.85;;;;;;;12.73;74.24;101157.66;1673867;84;21140;-62
2021/10/16 00:29:28;;;;;;;17.65;7.15;;;;;;;12.72;74.09;101151.38;1680561;84;21119;-63
2021/10/16 00:31:55;;;;;;;38.42;8.48;;;;;;;12.73;74.80;101136.13;1669257;84;21043;-62
2021/10/16 00:34:22;;;;;;;19.57;7.72;;;;;;;12.76;75.83;101136.01;1667169;84;21703;-61
2021/10/16 00:36:49;;;;;;;21.70;7.80;;;;;;;12.80;76.75;101141.67;1671747;84;21045;-63
2021/10/16 00:39:17;;;;;;;18.87;7.65;;;;;;;12.82;75.77;101147.88;1680938;84;21084;-64
2021/10/16 00:41:44;;;;;;;22.22;8.65;;;;;;;12.79;76.04;101134.54;1672722;84;22137;-62
2021/10/16 00:44:22;;;;;;;20.00;7.60;;;;;;;12.82;76.63;101133.07;1666778;84;21069;-62
2021/10/16 00:46:51;;;;;;;14.95;7.22;;;;;;;12.87;76.68;101140.98;1668180;85;21072;-62
2021/10/16 00:49:30;;;;;;;18.73;8.08;;;;;;;12.88;75.19;101138.20;1666112;85;21151;-59
2021/10/16 00:52:03;;;;;;;29.42;9.35;;;;;;;12.93;75.65;101133.11;1677283;83;21526;-58
2021/10/16 00:54:33;;;;;;;19.32;8.10;;;;;;;12.95;77.05;101125.40;1665903;83;21104;-56
2021/10/16 00:57:03;;;;;;;18.77;7.22;;;;;;;12.89;77.14;101119.78;1689028;82;21046;-56
2021/10/16 00:59:30;;;;;;;25.00;7.15;;;;;;;12.89;75.47;101112.19;1710037;83;21123;-57
2021/10/16 01:01:57;;;;;;;11.57;5.72;;;;;;;12.95;74.65;101111.08;1713550;82;21575;-57
2021/10/16 01:04:24;;;;;;;16.85;6.00;;;;;;;12.95;74.09;101105.70;1689626;83;21628;-56
2021/10/16 01:06:54;;;;;;;17.82;6.50;;;;;;;12.92;72.73;101095.03;1707097;83;21518;-56
2021/10/16 01:09:20;;;;;;;11.43;6.53;;;;;;;12.93;72.67;101103.50;1707841;83;21388;-56
2021/10/16 01:11:53;;;;;;;18.30;6.47;;;;;;;12.93;73.40;101110.23;1716138;82;21076;-61
2021/10/16 01:14:20;;;;;;;20.25;6.87;;;;;;;12.92;73.69;101093.68;1711560;82;21497;-57
2021/10/16 01:16:50;;;;;;;16.70;7.45;;;;;;;12.92;72.57;101104.45;1726337;82;21939;-56
2021/10/16 01:19:20;;;;;;;18.27;7.45;;;;;;;12.89;74.66;101104.98;1706463;82;21646;-63
2021/10/16 01:21:52;;;;;;;15.88;7.22;;;;;;;12.83;75.62;101104.36;1693387;82;21068;-62
2021/10/16 01:24:28;;;;;;;18.57;7.08;;;;;;;12.81;75.90;101104.41;1699818;82;21139;-63
2021/10/16 01:26:59;;;;;;;18.10;6.33;;;;;;;12.81;74.91;101095.00;1699358;82;21100;-62
2021/10/16 01:29:26;;;;;;;16.62;6.62;;;;;;;12.81;74.82;101098.14;1702804;82;21096;-63
2021/10/16 01:31:54;;;;;;;22.13;6.65;;;;;;;12.82;74.95;101090.47;1687396;82;21435;-63
2021/10/16 01:34:22;;;;;;;32.63;7.95;;;;;;;12.84;75.21;101086.80;1658783;84;21073;-62
2021/10/16 01:36:50;;;;;;;22.32;6.28;;;;;;;12.85;75.63;101089.89;1691679;84;21092;-63
2021/10/16 01:39:20;;;;;;;39.67;7.97;;;;;;;12.86;75.71;101086.75;1697421;82;21037;-63
2021/10/16 01:41:52;;;;;;;62.00;10.13;;;;;;;12.87;76.16;101099.27;1698684;82;21139;-63
2021/10/16 01:44:20;;;;;;;62.43;9.50;;;;;;;12.87;77.40;101083.98;1703072;82;21080;-64
2021/10/16 01:46:50;;;;;;;41.28;8.60;;;;;;;12.87;77.13;101082.63;1701900;82;21080;-63
2021/10/16 01:49:24;;;;;;;37.35;8.48;;;;;;;12.84;77.29;101077.37;1689883;82;21046;-63
2021/10/16 01:51:54;;;;;;;26.77;9.18;;;;;;;12.82;77.67;101064.45;1691837;82;21084;-63
2021/10/16 01:54:26;;;;;;;56.58;9.08;;;;;;;12.78;77.52;101068.66;1711363;82;21728;-64
2021/10/16 01:56:57;;;;;;;45.28;8.98;;;;;;;12.69;77.74;101082.00;1707771;82;21116;-64
2021/10/16 01:59:25;;;;;;;44.77;9.63;;;;;;;12.69;77.96;101095.00;1710111;82;21584;-63
2021/10/16 02:02:10;;;;;;;44.70;8.55;;;;;;;12.74;77.80;101080.03;1683018;82;21088;-56
2021/10/16 02:04:39;;;;;;;48.58;10.28;;;;;;;12.69;77.42;101080.66;1708062;82;21093;-56
2021/10/16 02:07:07;;;;;;;52.40;8.85;;;;;;;12.65;77.32;101092.48;1672239;85;21550;-62
2021/10/16 02:09:35;;;;;;;67.60;9.25;;;;;;;12.65;77.06;101088.45;1695990;82;21617;-61
2021/10/16 02:12:02;;;;;;;43.73;10.72;;;;;;;12.66;77.29;101083.47;1700802;82;21005;-62
2021/10/16 02:14:31;;;;;;;62.13;9.40;;;;;;;12.65;78.04;101074.99;1721753;82;21048;-62
2021/10/16 02:17:00;;;;;;;54.18;10.65;;;;;;;12.63;78.07;101074.17;1714937;82;21465;-62
2021/10/16 02:19:28;;;;;;;47.43;10.23;;;;;;;12.59;78.81;101066.69;1713562;82;21158;-56
2021/10/16 02:21:55;;;;;;;52.60;10.13;;;;;;;12.57;79.02;101061.38;1711046;82;21123;-62
2021/10/16 02:24:24;;;;;;;59.83;10.32;;;;;;;12.54;79.63;101057.47;1697508;83;21079;-63
2021/10/16 02:26:52;;;;;;;57.67;10.53;;;;;;;12.50;79.63;101051.80;1702482;82;21085;-62
2021/10/16 02:29:21;;;;;;;38.60;8.70;;;;;;;12.50;80.18;101073.32;1708297;82;21052;-63
2021/10/16 02:31:49;;;;;;;46.13;9.43;;;;;;;12.46;80.46;101060.90;1696444;82;21825;-63
2021/10/16 02:34:17;;;;;;;60.12;10.38;;;;;;;12.40;80.69;101050.38;1690694;82;21513;-62
2021/10/16 02:36:49;;;;;;;32.20;9.95;;;;;;;12.37;80.92;101046.47;1715134;82;21895;-62
2021/10/16 02:39:16;;;;;;;33.20;8.70;;;;;;;12.42;80.24;101045.83;1699628;82;21021;-63
2021/10/16 02:41:45;;;;;;;26.97;9.33;;;;;;;12.42;79.25;101043.13;1710062;82;21045;-64
2021/10/16 02:44:17;;;;;;;45.93;9.07;;;;;;;12.38;79.27;101034.78;1693928;82;21556;-63
2021/10/16 02:46:46;;;;;;;41.68;9.03;;;;;;;12.31;79.59;101053.84;1713270;82;21120;-62
2021/10/16 02:49:15;;;;;;;32.60;8.48;;;;;;;12.24;79.31;101032.13;1714425;82;21442;-62
2021/10/16 02:51:45;;;;;;;23.65;8.40;;;;;;;12.17;78.83;101029.27;1705278;82;38290;-61
2021/10/16 02:54:12;;;;;;;33.78;10.10;;;;;;;12.13;80.16;101030.33;1712783;82;21124;-62
2021/10/16 02:56:39;;;;;;;31.15;7.62;;;;;;;12.11;79.96;101032.20;1693446;82;21593;-63
2021/10/16 02:59:08;;;;;;;31.52;8.30;;;;;;;12.10;79.53;101030.45;1710872;82;21505;-62
2021/10/16 03:01:38;;;;;;;44.77;9.23;;;;;;;12.13;79.21;101028.98;1708695;82;21091;-61
2021/10/16 03:04:05;;;;;;;69.47;9.88;;;;;;;12.20;78.96;101029.16;1699320;82;21498;-62
2021/10/16 03:06:36;;;;;;;76.67;10.68;;;;;;;12.21;78.80;101024.19;1694563;84;21108;-62
2021/10/16 03:09:03;;;;;;;38.42;8.98;;;;;;;12.21;78.99;101034.94;1710068;82;22294;-63
2021/10/16 03:11:31;;;;;;;39.03;10.03;;;;;;;12.18;78.23;101019.83;1706593;82;21080;-62
2021/10/16 03:14:01;;;;;;;18.42;6.90;;;;;;;12.18;77.96;101015.80;1701461;82;21047;-62
2021/10/16 03:16:29;;;;;;;26.25;8.30;;;;;;;12.17;77.91;101014.49;1698120;82;21064;-62
2021/10/16 03:18:56;;;;;;;31.68;8.05;;;;;;;12.20;77.18;101013.03;1704535;82;21590;-62
2021/10/16 03:21:23;;;;;;;40.83;9.88;;;;;;;12.18;77.26;101014.45;1703906;82;21840;-62
2021/10/16 03:23:51;;;;;;;34.10;8.98;;;;;;;12.15;77.82;101009.64;1699260;82;21666;-62
2021/10/16 03:26:18;;;;;;;51.20;8.65;;;;;;;12.15;77.89;101002.92;1693022;82;21497;-62
2021/10/16 03:28:45;;;;;;;25.95;8.20;;;;;;;12.13;77.81;101007.48;1706101;82;21076;-62
2021/10/16 03:31:13;;;;;;;42.73;7.95;;;;;;;12.13;77.70;100998.08;1707699;82;21115;-57
2021/10/16 03:33:40;;;;;;;25.23;7.85;;;;;;;12.15;77.96;101000.23;1707959;82;22402;-61
2021/10/16 03:36:08;;;;;;;22.50;7.97;;;;;;;12.15;77.01;100990.34;1706051;82;21071;-62
2021/10/16 03:38:35;;;;;;;18.37;7.45;;;;;;;12.12;76.74;100989.61;1697158;82;21061;-56
2021/10/16 03:41:02;;;;;;;21.25;8.65;;;;;;;12.10;77.08;100988.80;1694532;82;21699;-62
2021/10/16 03:43:29;;;;;;;17.67;7.78;;;;;;;12.12;77.48;100995.84;1699475;82;21433;-61
2021/10/16 03:45:57;;;;;;;24.95;7.50;;;;;;;12.15;77.90;100989.48;1693589;84;21113;-56
2021/10/16 03:48:26;;;;;;;32.67;7.47;;;;;;;12.16;78.28;101003.33;1701199;82;21060;-56
2021/10/16 03:50:53;;;;;;;24.55;7.92;;;;;;;12.19;77.89;100996.49;1700200;82;21041;-56
2021/10/16 03:53:20;;;;;;;31.45;8.60;;;;;;;12.19;78.43;101004.55;1701194;82;21040;-62
2021/10/16 03:55:48;;;;;;;17.80;7.55;;;;;;;12.14;78.90;100987.73;1708761;83;21681;-62
2021/10/16 03:58:15;;;;;;;19.15;7.80;;;;;;;12.14;78.75;100987.73;1712930;82;21150;-57
2021/10/16 04:00:43;;;;;;;33.42;8.13;;;;;;;12.17;78.78;100998.37;1707940;82;21088;-56
2021/10/16 04:03:10;;;;;;;20.15;7.42;;;;;;;12.15;78.90;100993.03;1719354;82;21026;-57
2021/10/16 04:05:39;;;;;;;16.27;6.47;;;;;;;12.16;79.13;100999.30;1689502;83;21100;-54
2021/10/16 04:08:08;;;;;;;22.35;7.08;;;;;;;12.18;78.44;100992.95;1685155;83;21110;-57
2021/10/16 04:10:36;;;;;;;24.87;7.25;;;;;;;12.17;78.32;101001.05;1723874;82;21563;-62
2021/10/16 04:13:05;;;;;;;14.00;7.65;;;;;;;12.16;78.76;100989.89;1702053;84;21081;-62
2021/10/16 04:15:34;;;;;;;15.72;7.55;;;;;;;12.22;79.00;100982.93;1700717;82;21028;-61
2021/10/16 04:18:01;;;;;;;14.73;7.25;;;;;;;12.23;78.89;100987.37;1700733;82;21120;-60
2021/10/16 04:20:29;;;;;;;17.48;7.00;;;;;;;12.20;78.84;100990.18;1711285;82;21111;-56
2021/10/16 04:22:56;;;;;;;14.18;6.78;;;;;;;12.19;78.63;100995.15;1712283;81;21095;-55
2021/10/16 04:25:24;;;;;;;16.10;6.95;;;;;;;12.21;78.27;101004.52;1711659;82;21549;-55
2021/10/16 04:27:52;;;;;;;16.82;7.00;;;;;;;12.18;77.71;100982.19;1695247;82;21089;-56
2021/10/16 04:30:23;;;;;;;22.13;6.60;;;;;;;12.20;78.06;100996.04;1714624;82;21591;-63
2021/10/16 04:32:51;;;;;;;52.33;9.68;;;;;;;12.22;77.64;100976.21;1714481;82;21497;-62
2021/10/16 04:35:18;;;;;;;70.78;9.85;;;;;;;12.23;77.92;100979.30;1712178;82;21596;-62
2021/10/16 04:37:45;;;;;;;60.60;9.15;;;;;;;12.23;78.29;100984.69;1691131;83;21043;-56
2021/10/16 04:40:24;;;;;;;49.20;8.85;;;;;;;12.25;78.66;100990.88;1720141;82;21045;-62
2021/10/16 04:42:51;;;;;;;43.90;8.25;;;;;;;12.27;78.23;100989.03;1709609;82;21065;-55
2021/10/16 04:45:20;;;;;;;46.55;7.78;;;;;;;12.25;77.98;100992.70;1702722;82;21053;-61
2021/10/16 04:47:47;;;;;;;49.50;7.90;;;;;;;12.21;78.27;100990.59;1701653;84;21754;-62
2021/10/16 04:50:14;;;;;;;61.35;10.25;;;;;;;12.21;78.29;101004.03;1719881;82;21067;-57
2021/10/16 04:52:43;;;;;;;30.12;7.08;;;;;;;12.21;78.05;100975.80;1693626;81;21681;-56
2021/10/16 04:55:12;;;;;;;38.55;7.85;;;;;;;12.21;78.35;100979.83;1704261;82;21058;-56
2021/10/16 04:57:39;;;;;;;36.48;7.53;;;;;;;12.22;78.33;100978.90;1700491;82;21089;-56
2021/10/16 05:00:08;;;;;;;59.35;8.45;;;;;;;12.23;78.31;100990.06;1706582;82;21105;-62
2021/10/16 05:02:38;;;;;;;48.23;8.95;;;;;;;12.20;78.48;100978.56;1698157;82;21037;-62
2021/10/16 05:05:07;;;;;;;43.48;7.90;;;;;;;12.20;78.36;100978.56;1694847;82;21053;-62
2021/10/16 05:07:34;;;;;;;65.67;7.85;;;;;;;12.23;78.09;100983.34;1695372;82;21125;-62
2021/10/16 05:10:04;;;;;;;59.93;8.13;;;;;;;12.23;77.80;100991.41;1705891;82;21093;-61
2021/10/16 05:12:31;;;;;;;34.03;6.97;;;;;;;12.25;78.00;101011.52;1700634;82;22283;-63
2021/10/16 05:14:58;;;;;;;32.88;6.87;;;;;;;12.30;77.83;100993.39;1676040;84;21101;-62
2021/10/16 05:17:26;;;;;;;34.10;7.17;;;;;;;12.26;76.58;100998.00;1681008;83;21077;-55
2021/10/16 05:19:54;;;;;;;24.32;7.00;;;;;;;12.23;76.99;101006.19;1682789;83;21120;-62
2021/10/16 05:22:21;;;;;;;19.85;6.87;;;;;;;12.23;76.87;101002.64;1675055;82;21064;-62
2021/10/16 05:24:49;;;;;;;20.12;7.15;;;;;;;12.25;76.84;101004.31;1697629;82;21162;-61
2021/10/16 05:27:16;;;;;;;31.15;7.10;;;;;;;12.25;76.77;101008.34;1672518;84;21566;-56
2021/10/16 05:29:43;;;;;;;17.27;6.97;;;;;;;12.25;78.10;101010.17;1709866;81;21143;-56
2021/10/16 05:32:11;;;;;;;22.60;7.15;;;;;;;12.28;78.33;101020.36;1696960;83;21541;-55
2021/10/16 05:34:38;;;;;;;19.75;7.62;;;;;;;12.34;78.04;101037.18;1683851;84;21519;-57
2021/10/16 05:37:08;;;;;;;45.75;8.53;;;;;;;12.31;78.77;101028.30;1690678;83;21112;-57
2021/10/16 05:39:36;;;;;;;27.07;9.08;;;;;;;12.32;80.98;101019.75;1687653;83;21128;-57
2021/10/16 05:42:05;;;;;;;47.65;9.95;;;;;;;12.30;81.62;101016.25;1677344;84;21539;-57
2021/10/16 05:44:32;;;;;;;42.30;9.23;;;;;;;12.25;82.32;101015.06;1681886;84;21042;-56
2021/10/16 05:46:59;;;;;;;17.95;8.73;;;;;;;12.26;83.06;101014.13;1675838;84;21092;-63
2021/10/16 05:49:26;;;;;;;16.23;8.43;;;;;;;12.31;83.56;101020.23;1684387;83;21829;-57
2021/10/16 05:51:53;;;;;;;20.62;9.60;;;;;;;12.29;83.96;101016.73;1666107;83;21042;-61
2021/10/16 05:54:21;;;;;;;21.87;9.53;;;;;;;12.28;84.57;101013.64;1674580;84;21549;-56
2021/10/16 05:56:48;;;;;;;15.85;8.40;;;;;;;12.29;84.79;101011.36;1682479;84;21041;-56
2021/10/16 05:59:15;;;;;;;17.73;8.88;;;;;;;12.26;84.67;101010.09;1677599;84;21696;-62
2021/10/16 06:01:42;;;;;;;15.72;8.30;;;;;;;12.23;85.28;101014.73;1670170;84;21852;-55
2021/10/16 06:04:10;;;;;;;17.60;8.65;;;;;;;12.20;85.84;101006.31;1664366;85;21464;-56
2021/10/16 06:06:37;;;;;;;14.83;8.48;;;;;;;12.24;85.76;101011.11;1671078;84;21083;-56
2021/10/16 06:09:05;;;;;;;15.43;8.43;;;;;;;12.19;85.93;101008.59;1673963;84;21558;-59
2021/10/16 06:11:34;;;;;;;20.72;8.75;;;;;;;12.13;85.85;100999.42;1668578;84;21072;-62
2021/10/16 06:14:03;;;;;;;19.65;8.45;;;;;;;12.10;86.08;101002.23;1686259;83;21553;-63
2021/10/16 06:16:30;;;;;;;17.30;8.33;;;;;;;12.09;85.91;101005.85;1677670;84;21121;-63
2021/10/16 06:19:02;;;;;;;19.50;8.85;;;;;;;12.07;85.85;101007.72;1673339;84;21127;-63
2021/10/16 06:21:26;;;;;;;22.07;8.53;;;;;;;12.04;86.22;101006.87;1671824;84;21518;-62
2021/10/16 06:23:53;;;;;;;22.75;9.13;;;;;;;12.03;86.56;100991.69;1659544;85;21743;-62
2021/10/16 06:26:22;;;;;;;20.30;9.23;;;;;;;12.07;86.35;100998.31;1674240;84;21463;-56
2021/10/16 06:28:49;;;;;;;16.77;9.45;;;;;;;12.13;86.14;101008.83;1666830;84;21534;-63
2021/10/16 06:31:16;;;;;;;20.35;9.08;;;;;;;12.16;85.55;101008.70;1673260;84;22204;-63
2021/10/16 06:33:43;;;;;;;16.80;9.88;;;;;;;12.15;85.36;100995.72;1677562;84;21524;-62
2021/10/16 06:36:11;;;;;;;14.15;9.08;;;;;;;12.15;85.22;101000.23;1658017;85;21061;-63
2021/10/16 06:38:41;;;;;;;17.87;9.38;;;;;;;12.12;85.41;101015.14;1677078;84;21610;-63
2021/10/16 06:41:08;;;;;;;18.12;9.73;;;;;;;12.09;85.25;101005.36;1669633;84;21037;-62
2021/10/16 06:43:49;;;;;;;16.02;10.08;;;;;;;12.08;85.74;101018.39;1665195;84;21100;-63
2021/10/16 06:46:21;;;;;;;24.75;9.63;;;;;;;12.07;85.93;101015.78;1653016;85;21562;-62
2021/10/16 06:48:50;;;;;;;16.10;9.23;;;;;;;12.09;85.89;101000.47;1665330;84;21510;-56
2021/10/16 06:51:19;;;;;;;15.43;9.93;;;;;;;12.07;85.72;101015.78;1668373;84;21206;-56
2021/10/16 06:53:47;;;;;;;15.93;9.13;;;;;;;12.03;85.86;101009.63;1673710;84;21357;-56
2021/10/16 06:56:14;;;;;;;18.92;9.30;;;;;;;12.00;86.27;100997.14;1654279;85;21562;-58
2021/10/16 06:58:41;;;;;;;16.75;9.58;;;;;;;11.97;86.28;100997.27;1677373;84;21057;-57
2021/10/16 07:01:08;;;;;;;18.30;9.78;;;;;;;11.95;86.08;101000.95;1666367;84;21518;-62
2021/10/16 07:03:40;;;;;;;18.57;8.83;;;;;;;11.94;86.65;101001.89;1682827;84;21152;-56
2021/10/16 07:06:10;;;;;;;19.05;8.88;;;;;;;12.00;86.19;101005.69;1666432;84;21856;-56
2021/10/16 07:08:37;;;;;;;16.12;9.43;;;;;;;12.06;85.70;101005.97;1671706;84;21499;-56
2021/10/16 07:11:05;;;;;;;20.05;9.68;;;;;;;12.07;85.98;100998.31;1669824;84;21108;-57
2021/10/16 07:13:33;;;;;;;15.72;8.45;;;;;;;12.10;85.87;100999.05;1686859;83;21628;-57
2021/10/16 07:16:00;;;;;;;15.23;8.30;;;;;;;12.16;85.31;101001.98;1695169;83;21937;-57
2021/10/16 07:18:27;;;;;;;16.30;8.70;;;;;;;12.26;85.23;101003.37;1684589;83;21047;-63
2021/10/16 07:20:54;;;;;;;15.60;8.18;;;;;;;12.40;84.77;100982.71;1692815;83;21358;-64
2021/10/16 07:23:26;;;;;;;15.55;8.15;;;;;;;12.47;84.24;100979.28;1704752;83;21056;-57
2021/10/16 07:25:52;;;;;;;17.52;7.85;;;;;;;12.54;83.91;100990.23;1699673;83;21070;-56
2021/10/16 07:28:19;;;;;;;14.35;7.60;;;;;;;12.62;83.73;100983.20;1700568;83;21188;-58
2021/10/16 07:30:46;;;;;;;13.70;8.28;;;;;;;12.74;82.84;100985.39;1684515;83;21659;-63
2021/10/16 07:33:13;;;;;;;18.05;8.78;;;;;;;12.85;82.37;100980.91;1676950;82;21474;-63
2021/10/16 07:35:44;;;;;;;16.70;8.73;;;;;;;12.95;81.93;101000.74;1681222;83;22258;-58
2021/10/16 07:38:11;;;;;;;14.10;7.75;;;;;;;13.00;80.37;101007.66;1689937;83;21088;-58
2021/10/16 07:40:39;;;;;;;13.75;8.20;;;;;;;13.03;80.50;100999.94;1676266;83;21142;-56
2021/10/16 07:43:07;;;;;;;11.93;7.75;;;;;;;13.14;80.71;101006.23;1696360;83;21619;-55
2021/10/16 07:45:35;;;;;;;20.65;8.03;;;;;;;13.26;79.42;101011.56;1687590;83;21079;-62
2021/10/16 07:48:01;;;;;;;15.28;8.23;;;;;;;13.30;78.29;101017.22;1683146;83;21522;-62
2021/10/16 07:50:29;;;;;;;22.67;9.15;;;;;;;13.27;77.89;101014.66;1687801;83;21299;-63
2021/10/16 07:52:56;;;;;;;15.58;9.18;;;;;;;13.25;77.76;100996.36;1686748;83;21764;-62
2021/10/16 07:55:22;;;;;;;14.25;8.20;;;;;;;13.23;78.23;101010.35;1664083;84;21422;-62
2021/10/16 07:57:49;;;;;;;15.63;8.60;;;;;;;13.24;77.64;101006.23;1675946;84;21587;-62
2021/10/16 08:00:17;;;;;;;18.35;8.33;;;;;;;13.22;76.96;101003.22;1679204;84;21474;-63
2021/10/16 08:02:44;;;;;;;14.07;8.03;;;;;;;13.16;77.75;101001.66;1686288;83;21083;-62
2021/10/16 08:05:14;;;;;;;14.00;8.23;;;;;;;13.06;77.69;101003.84;1692015;84;21443;-63
2021/10/16 08:07:42;;;;;;;13.08;8.28;;;;;;;12.98;78.10;101018.11;1694412;83;21080;-62
2021/10/16 08:10:11;;;;;;;16.55;9.05;;;;;;;12.89;78.23;101001.38;1668209;84;21040;-63
2021/10/16 08:12:39;;;;;;;15.70;9.08;;;;;;;12.85;78.69;101014.55;1677061;84;21040;-62
2021/10/16 08:15:07;;;;;;;17.87;9.08;;;;;;;12.83;79.31;101019.13;1663526;84;21073;-61
2021/10/16 08:17:34;;;;;;;17.00;9.00;;;;;;;12.89;79.40;101018.87;1681081;84;21878;-61
2021/10/16 08:20:02;;;;;;;16.93;8.83;;;;;;;12.98;78.71;101020.80;1673773;84;21184;-61
2021/10/16 08:22:29;;;;;;;18.67;9.13;;;;;;;13.01;78.20;101019.31;1675641;84;21060;-63
2021/10/16 08:24:56;;;;;;;17.50;10.03;;;;;;;13.00;78.44;101014.88;1681104;84;21064;-62
2021/10/16 08:27:23;;;;;;;17.15;9.40;;;;;;;12.99;78.58;101019.85;1683290;84;21519;-61
2021/10/16 08:29:51;;;;;;;17.30;8.80;;;;;;;12.98;78.64;101024.83;1674404;84;21145;-63
2021/10/16 08:32:18;;;;;;;17.15;9.03;;;;;;;13.02;78.13;101015.69;1669391;84;21568;-62
2021/10/16 08:34:45;;;;;;;15.72;8.73;;;;;;;13.02;77.96;101018.38;1670232;84;21224;-63
2021/10/16 08:37:12;;;;;;;18.48;8.90;;;;;;;12.99;77.62;101011.78;1675454;84;21097;-62
2021/10/16 08:39:39;;;;;;;14.05;8.85;;;;;;;13.00;77.63;101018.91;1662592;85;21049;-62
2021/10/16 08:42:06;;;;;;;15.23;9.15;;;;;;;13.02;77.42;101014.34;1675708;84;22256;-62
2021/10/16 08:44:34;;;;;;;16.75;9.00;;;;;;;13.06;77.18;101019.14;1672424;84;21016;-63
2021/10/16 08:47:01;;;;;;;16.25;8.88;;;;;;;13.03;77.24;101017.44;1649094;86;21080;-62
2021/10/16 08:49:31;;;;;;;16.93;9.05;;;;;;;13.02;77.59;101004.44;1668487;84;21060;-56
2021/10/16 08:51:59;;;;;;;18.02;8.33;;;;;;;13.06;77.75;101006.55;1662730;84;21080;-62
2021/10/16 08:54:26;;;;;;;12.93;8.08;;;;;;;13.13;77.47;101011.20;1674832;83;21181;-61
2021/10/16 08:56:53;;;;;;;16.07;9.28;;;;;;;13.13;77.40;101010.72;1681566;83;21138;-62
2021/10/16 08:59:20;;;;;;;19.07;9.15;;;;;;;13.17;77.59;101009.68;1692628;82;21025;-62
2021/10/16 09:02:02;;;;;;;21.07;9.25;;;;;;;13.23;77.67;100999.09;1686674;83;21545;-62
2021/10/16 09:04:32;;;;;;;15.83;8.78;;;;;;;13.27;77.69;100993.13;1679042;83;21103;-62
2021/10/16 09:06:59;;;;;;;16.70;8.90;;;;;;;13.35;77.50;100992.80;1681466;83;21474;-62
2021/10/16 09:09:29;;;;;;;16.65;8.65;;;;;;;13.37;77.29;100990.42;1696854;83;21036;-62
2021/10/16 09:12:00;;;;;;;17.52;8.65;;;;;;;13.34;77.56;100981.14;1686003;83;21082;-61
2021/10/16 09:14:28;;;;;;;16.57;8.73;;;;;;;13.38;78.07;100982.78;1683672;83;21030;-62
2021/10/16 09:17:01;;;;;;;17.62;9.20;;;;;;;13.49;77.72;100977.42;1683156;83;21060;-63
2021/10/16 09:19:31;;;;;;;19.35;9.05;;;;;;;13.58;77.38;100979.24;1683994;83;21829;-63
2021/10/16 09:22:08;;;;;;;13.32;8.48;;;;;;;13.69;76.34;100968.45;1673052;83;21096;-62
2021/10/16 09:24:43;;;;;;;21.45;8.90;;;;;;;13.78;75.13;100977.94;1678685;84;21109;-63
2021/10/16 09:27:22;;;;;;;22.55;9.03;;;;;;;13.85;75.25;100982.98;1683503;83;20988;-61
2021/10/16 09:29:55;;;;;;;16.87;8.45;;;;;;;13.95;74.74;100979.41;1686307;83;21002;-63
2021/10/16 09:32:25;;;;;;;21.75;9.45;;;;;;;14.02;74.51;100974.61;1698903;83;22357;-63
2021/10/16 09:35:04;;;;;;;15.83;8.88;;;;;;;14.16;73.81;100978.02;1690221;83;21092;-63
2021/10/16 09:37:31;;;;;;;17.62;9.80;;;;;;;14.27;72.92;100974.36;1677395;83;21128;-63
2021/10/16 09:40:00;;;;;;;17.42;9.93;;;;;;;14.37;72.42;100976.61;1688666;83;21108;-63
2021/10/16 09:42:37;;;;;;;17.17;10.58;;;;;;;14.43;71.77;100973.61;1686237;82;21077;-63
2021/10/16 09:45:07;;;;;;;17.30;10.72;;;;;;;14.44;71.60;100972.66;1675328;84;21560;-62
2021/10/16 09:47:34;;;;;;;17.85;10.13;;;;;;;14.46;70.64;100970.77;1671418;84;21204;-63
2021/10/16 09:50:07;;;;;;;17.17;9.88;;;;;;;14.50;70.04;100983.19;1673098;84;21096;-61
2021/10/16 09:52:37;;;;;;;18.02;10.53;;;;;;;14.53;69.81;100984.38;1709605;82;21079;-62
2021/10/16 09:55:06;;;;;;;17.50;10.50;;;;;;;14.60;69.40;100979.56;1679531;83;21225;-62
2021/10/16 09:57:33;;;;;;;17.25;10.30;;;;;;;14.66;68.93;100978.38;1701078;83;21792;-62
2021/10/16 10:00:01;;;;;;;20.02;11.05;;;;;;;14.74;67.99;100966.78;1692793;84;21096;-56
2021/10/16 10:02:31;;;;;;;19.55;10.38;;;;;;;14.79;67.09;100970.13;1679863;84;21037;-56
2021/10/16 10:04:58;;;;;;;16.93;9.08;;;;;;;14.76;66.99;100972.98;1665912;83;21056;-57
2021/10/16 10:07:25;;;;;;;22.00;10.90;;;;;;;14.81;66.77;100972.27;1680365;83;20999;-57
2021/10/16 10:09:52;;;;;;;16.32;10.95;;;;;;;14.83;66.97;100971.71;1679146;84;21127;-56
2021/10/16 10:12:21;;;;;;;17.90;10.85;;;;;;;14.85;67.24;100975.20;1703449;83;21138;-56
2021/10/16 10:14:50;;;;;;;22.05;10.72;;;;;;;14.87;67.11;100967.05;1678984;84;21073;-56
2021/10/16 10:17:26;;;;;;;15.55;10.32;;;;;;;14.94;67.60;100967.62;1665073;84;21026;-63
2021/10/16 10:20:02;;;;;;;19.12;10.82;;;;;;;15.03;67.12;100966.69;1634725;85;21096;-62
2021/10/16 10:22:34;;;;;;;18.90;10.28;;;;;;;15.17;66.95;100967.80;1676978;84;21186;-56
2021/10/16 10:25:13;;;;;;;19.27;10.08;;;;;;;15.23;66.91;100966.12;1673671;84;21752;-57
2021/10/16 10:27:44;;;;;;;16.55;10.10;;;;;;;15.26;66.67;100957.89;1664829;84;21541;-57
2021/10/16 10:30:41;;;;;;;15.90;10.28;;;;;;;15.31;66.06;100957.62;1654876;84;21078;-61
2021/10/16 10:33:22;;;;;;;22.90;11.05;;;;;;;15.34;65.96;100961.52;1665415;84;21042;-58
2021/10/16 10:36:02;;;;;;;15.93;9.75;;;;;;;15.41;66.08;100956.22;1676097;84;22358;-55
2021/10/16 10:38:37;;;;;;;16.48;9.48;;;;;;;15.43;65.63;100955.66;1660223;84;21492;-57
2021/10/16 10:41:26;;;;;;;;;;;;;;;15.50;65.32;100948.56;1657278;84;21069;-56
2021/10/16 10:43:53;;;;;;;14.85;9.43;;;;;;;15.52;65.88;100948.89;1678323;84;20205;-57
2021/10/16 10:46:25;;;;;;;19.45;9.90;;;;;;;15.55;66.14;100941.08;1680342;83;21545;-57
2021/10/16 10:48:51;;;;;;;16.97;10.53;;;;;;;15.56;66.52;100938.31;1653436;85;21145;-57
2021/10/16 10:51:36;;;;;;;18.15;10.60;;;;;;;15.52;66.37;100938.55;1649020;85;21070;-57
2021/10/16 10:54:17;;;;;;;17.57;9.88;;;;;;;15.49;66.97;100939.61;1678135;83;21104;-57
2021/10/16 10:56:55;;;;;;;18.65;10.65;;;;;;;15.50;67.33;100937.77;1675016;83;21108;-56
2021/10/16 10:59:20;;;;;;;21.65;10.72;;;;;;;15.47;67.67;100937.43;1689044;83;21037;-56
2021/10/16 11:02:05;;;;;;;15.78;10.03;;;;;;;15.46;67.75;100937.92;1660207;85;21530;-57
2021/10/16 11:04:49;;;;;;;15.50;10.18;;;;;;;15.46;67.80;100935.23;1669243;84;22280;-63
2021/10/16 11:07:30;;;;;;;18.48;10.30;;;;;;;15.45;67.96;100936.18;1672497;84;21074;-62
2021/10/16 11:09:58;;;;;;;20.10;11.00;;;;;;;15.46;67.86;100929.82;1667029;84;21108;-61
2021/10/16 11:12:38;;;;;;;20.37;10.50;;;;;;;15.43;67.95;100927.28;1672141;85;21092;-62
2021/10/16 11:15:09;;;;;;;25.10;11.55;;;;;;;15.46;68.11;100928.47;1683345;83;21759;-56
2021/10/16 11:17:44;;;;;;;17.60;11.08;;;;;;;15.53;67.98;100922.73;1672120;84;21414;-56
2021/10/16 11:20:18;;;;;;;29.87;11.83;;;;;;;15.52;68.34;100926.39;1668455;84;21333;-57
2021/10/16 11:22:52;;;;;;;34.75;13.22;;;;;;;15.50;68.45;100924.25;1669892;85;21145;-57
2021/10/16 11:25:29;;;;;;;17.65;12.18;;;;;;;15.44;68.71;100920.92;1669353;84;21482;-61